sensor_id;sensor_type;location;lat;lon;timestamp;temperature;humidity
8220;DHT22;4151;51.110;7.020;2023-08-07T00:00:26;12.70;99.90
8220;DHT22;4151;51.110;7.020;2023-08-07T00:02:52;12.70;99.90
8220;DHT22;4151;51.110;7.020;2023-08-07T00:05:17;12.70;99.90
8220;DHT22;4151;51.110;7.020;2023-08-07T00:07:43;12.60;99.90
8220;DHT22;4151;51.110;7.020;2023-08-07T00:10:09;12.60;99.90
8220;DHT22;4151;51.110;7.020;2023-08-07T00:12:35;12.60;99.90
8220;DHT22;4151;51.110;7.020;2023-08-07T00:15:04;12.60;99.90
8220;DHT22;4151;51.110;7.020;2023-08-07T00:17:30;12.50;99.90
8220;DHT22;4151;51.110;7.020;2023-08-07T00:19:55;12.50;99.90
8220;DHT22;4151;51.110;7.020;2023-08-07T00:22:21;12.50;99.90
8220;DHT22;4151;51.110;7.020;2023-08-07T00:24:46;12.50;99.90
8220;DHT22;4151;51.110;7.020;2023-08-07T00:27:12;12.50;99.90
8220;DHT22;4151;51.110;7.020;2023-08-07T00:29:40;12.50;99.90
8220;DHT22;4151;51.110;7.020;2023-08-07T00:32:06;12.50;99.90
8220;DHT22;4151;51.110;7.020;2023-08-07T00:34:32;12.50;99.90
8220;DHT22;4151;51.110;7.020;2023-08-07T00:36:58;12.50;99.90
8220;DHT22;4151;51.110;7.020;2023-08-07T00:39:24;12.50;99.90
8220;DHT22;4151;51.110;7.020;2023-08-07T00:41:49;12.50;99.90
8220;DHT22;4151;51.110;7.020;2023-08-07T00:44:15;12.50;99.90
8220;DHT22;4151;51.110;7.020;2023-08-07T00:46:41;12.40;99.90
8220;DHT22;4151;51.110;7.020;2023-08-07T00:49:09;12.50;99.90
8220;DHT22;4151;51.110;7.020;2023-08-07T00:51:36;12.40;99.90
8220;DHT22;4151;51.110;7.020;2023-08-07T00:54:03;12.50;99.90
8220;DHT22;4151;51.110;7.020;2023-08-07T00:56:31;12.50;99.90
8220;DHT22;4151;51.110;7.020;2023-08-07T00:59:00;12.50;99.90
8220;DHT22;4151;51.110;7.020;2023-08-07T01:01:26;12.50;99.90
8220;DHT22;4151;51.110;7.020;2023-08-07T01:03:52;12.50;99.90
8220;DHT22;4151;51.110;7.020;2023-08-07T01:06:18;12.50;99.90
8220;DHT22;4151;51.110;7.020;2023-08-07T01:08:44;12.50;99.90
8220;DHT22;4151;51.110;7.020;2023-08-07T01:11:32;12.50;99.90
8220;DHT22;4151;51.110;7.020;2023-08-07T01:17:00;12.40;99.90
8220;DHT22;4151;51.110;7.020;2023-08-07T01:19:28;12.40;99.90
8220;DHT22;4151;51.110;7.020;2023-08-07T01:24:35;12.40;99.90
8220;DHT22;4151;51.110;7.020;2023-08-07T01:27:52;12.40;99.90
8220;DHT22;4151;51.110;7.020;2023-08-07T01:29:59;12.40;99.90
8220;DHT22;4151;51.110;7.020;2023-08-07T01:35:03;12.30;99.90
8220;DHT22;4151;51.110;7.020;2023-08-07T01:37:33;12.30;99.90
8220;DHT22;4151;51.110;7.020;2023-08-07T01:40:00;12.30;99.90
8220;DHT22;4151;51.110;7.020;2023-08-07T01:42:27;12.30;99.90
8220;DHT22;4151;51.110;7.020;2023-08-07T01:44:53;12.30;99.90
8220;DHT22;4151;51.110;7.020;2023-08-07T01:47:18;12.30;99.90
8220;DHT22;4151;51.110;7.020;2023-08-07T01:49:44;12.30;99.90
8220;DHT22;4151;51.110;7.020;2023-08-07T01:52:10;12.30;99.90
8220;DHT22;4151;51.110;7.020;2023-08-07T01:54:36;12.30;99.90
8220;DHT22;4151;51.110;7.020;2023-08-07T01:57:02;12.30;99.90
8220;DHT22;4151;51.110;7.020;2023-08-07T01:59:28;12.20;99.90
8220;DHT22;4151;51.110;7.020;2023-08-07T02:01:53;12.20;99.90
8220;DHT22;4151;51.110;7.020;2023-08-07T02:04:19;12.20;99.90
8220;DHT22;4151;51.110;7.020;2023-08-07T02:06:44;12.20;99.90
8220;DHT22;4151;51.110;7.020;2023-08-07T02:09:10;12.20;99.90
8220;DHT22;4151;51.110;7.020;2023-08-07T02:11:35;12.20;99.90
8220;DHT22;4151;51.110;7.020;2023-08-07T02:14:01;12.10;99.90
8220;DHT22;4151;51.110;7.020;2023-08-07T02:16:26;12.10;99.90
8220;DHT22;4151;51.110;7.020;2023-08-07T02:18:52;12.10;99.90
8220;DHT22;4151;51.110;7.020;2023-08-07T02:21:17;12.10;99.90
8220;DHT22;4151;51.110;7.020;2023-08-07T02:23:43;12.10;99.90
8220;DHT22;4151;51.110;7.020;2023-08-07T02:26:09;12.10;99.90
8220;DHT22;4151;51.110;7.020;2023-08-07T02:28:34;12.10;99.90
8220;DHT22;4151;51.110;7.020;2023-08-07T02:31:00;12.10;99.90
8220;DHT22;4151;51.110;7.020;2023-08-07T02:33:25;12.10;99.90
8220;DHT22;4151;51.110;7.020;2023-08-07T02:35:51;12.10;99.90
8220;DHT22;4151;51.110;7.020;2023-08-07T02:38:17;12.10;99.90
8220;DHT22;4151;51.110;7.020;2023-08-07T02:40:43;12.00;99.90
8220;DHT22;4151;51.110;7.020;2023-08-07T02:43:08;12.00;99.90
8220;DHT22;4151;51.110;7.020;2023-08-07T02:45:34;12.00;99.90
8220;DHT22;4151;51.110;7.020;2023-08-07T02:48:00;12.10;99.90
8220;DHT22;4151;51.110;7.020;2023-08-07T02:50:26;12.10;99.90
8220;DHT22;4151;51.110;7.020;2023-08-07T02:52:53;12.00;99.90
8220;DHT22;4151;51.110;7.020;2023-08-07T02:55:18;12.00;99.90
8220;DHT22;4151;51.110;7.020;2023-08-07T02:57:44;12.00;99.90
8220;DHT22;4151;51.110;7.020;2023-08-07T03:00:10;12.00;99.90
8220;DHT22;4151;51.110;7.020;2023-08-07T03:02:36;12.00;99.90
8220;DHT22;4151;51.110;7.020;2023-08-07T03:05:02;12.00;99.90
8220;DHT22;4151;51.110;7.020;2023-08-07T03:07:28;12.00;99.90
8220;DHT22;4151;51.110;7.020;2023-08-07T03:09:53;12.00;99.90
8220;DHT22;4151;51.110;7.020;2023-08-07T03:12:19;12.00;99.90
8220;DHT22;4151;51.110;7.020;2023-08-07T03:14:44;12.00;99.90
8220;DHT22;4151;51.110;7.020;2023-08-07T03:17:10;12.00;99.90
8220;DHT22;4151;51.110;7.020;2023-08-07T03:19:35;12.00;99.90
8220;DHT22;4151;51.110;7.020;2023-08-07T03:22:01;12.00;99.90
8220;DHT22;4151;51.110;7.020;2023-08-07T03:24:27;12.00;99.90
8220;DHT22;4151;51.110;7.020;2023-08-07T03:26:52;12.00;99.90
8220;DHT22;4151;51.110;7.020;2023-08-07T03:29:18;12.00;99.90
8220;DHT22;4151;51.110;7.020;2023-08-07T03:31:43;12.00;99.90
8220;DHT22;4151;51.110;7.020;2023-08-07T03:34:09;12.00;99.90
8220;DHT22;4151;51.110;7.020;2023-08-07T03:36:35;12.00;99.90
8220;DHT22;4151;51.110;7.020;2023-08-07T03:39:00;12.00;99.90
8220;DHT22;4151;51.110;7.020;2023-08-07T03:41:26;12.00;99.90
8220;DHT22;4151;51.110;7.020;2023-08-07T03:43:52;12.00;99.90
8220;DHT22;4151;51.110;7.020;2023-08-07T03:46:17;12.00;99.90
8220;DHT22;4151;51.110;7.020;2023-08-07T03:48:43;12.00;99.90
8220;DHT22;4151;51.110;7.020;2023-08-07T03:51:08;12.00;99.90
8220;DHT22;4151;51.110;7.020;2023-08-07T03:53:34;12.00;99.90
8220;DHT22;4151;51.110;7.020;2023-08-07T03:56:00;12.00;99.90
8220;DHT22;4151;51.110;7.020;2023-08-07T03:58:25;12.00;99.90
8220;DHT22;4151;51.110;7.020;2023-08-07T04:00:51;12.00;99.90
8220;DHT22;4151;51.110;7.020;2023-08-07T04:03:18;12.00;99.90
8220;DHT22;4151;51.110;7.020;2023-08-07T04:05:44;12.00;99.90
8220;DHT22;4151;51.110;7.020;2023-08-07T04:08:09;12.00;99.90
8220;DHT22;4151;51.110;7.020;2023-08-07T04:10:35;12.00;99.90
8220;DHT22;4151;51.110;7.020;2023-08-07T04:13:00;12.00;99.90
8220;DHT22;4151;51.110;7.020;2023-08-07T04:15:26;12.00;99.90
8220;DHT22;4151;51.110;7.020;2023-08-07T04:17:51;12.00;99.90
8220;DHT22;4151;51.110;7.020;2023-08-07T04:20:17;12.00;99.90
8220;DHT22;4151;51.110;7.020;2023-08-07T04:22:43;12.10;99.90
8220;DHT22;4151;51.110;7.020;2023-08-07T04:25:10;12.00;99.90
8220;DHT22;4151;51.110;7.020;2023-08-07T04:27:35;12.00;99.90
8220;DHT22;4151;51.110;7.020;2023-08-07T04:30:01;12.00;99.90
8220;DHT22;4151;51.110;7.020;2023-08-07T04:32:26;12.10;99.90
8220;DHT22;4151;51.110;7.020;2023-08-07T04:34:52;12.10;99.90
8220;DHT22;4151;51.110;7.020;2023-08-07T04:37:19;12.10;99.90
8220;DHT22;4151;51.110;7.020;2023-08-07T04:39:44;12.10;99.90
8220;DHT22;4151;51.110;7.020;2023-08-07T04:42:10;12.10;99.90
8220;DHT22;4151;51.110;7.020;2023-08-07T04:44:35;12.10;99.90
8220;DHT22;4151;51.110;7.020;2023-08-07T04:47:01;12.10;99.90
8220;DHT22;4151;51.110;7.020;2023-08-07T04:49:27;12.10;99.90
8220;DHT22;4151;51.110;7.020;2023-08-07T04:51:52;12.10;99.90
8220;DHT22;4151;51.110;7.020;2023-08-07T04:54:18;12.10;99.90
8220;DHT22;4151;51.110;7.020;2023-08-07T04:56:44;12.10;99.90
8220;DHT22;4151;51.110;7.020;2023-08-07T04:59:10;12.10;99.90
8220;DHT22;4151;51.110;7.020;2023-08-07T05:01:36;12.10;99.90
8220;DHT22;4151;51.110;7.020;2023-08-07T05:04:02;12.00;99.90
8220;DHT22;4151;51.110;7.020;2023-08-07T05:06:27;12.00;99.90
8220;DHT22;4151;51.110;7.020;2023-08-07T05:08:53;12.00;99.90
8220;DHT22;4151;51.110;7.020;2023-08-07T05:11:18;12.00;99.90
8220;DHT22;4151;51.110;7.020;2023-08-07T05:13:45;12.00;99.90
8220;DHT22;4151;51.110;7.020;2023-08-07T05:16:11;12.00;99.90
8220;DHT22;4151;51.110;7.020;2023-08-07T05:18:36;12.10;99.90
8220;DHT22;4151;51.110;7.020;2023-08-07T05:21:02;12.10;99.90
8220;DHT22;4151;51.110;7.020;2023-08-07T05:23:28;12.10;99.90
8220;DHT22;4151;51.110;7.020;2023-08-07T05:25:53;12.10;99.90
8220;DHT22;4151;51.110;7.020;2023-08-07T05:28:19;12.10;99.90
8220;DHT22;4151;51.110;7.020;2023-08-07T05:30:45;12.10;99.90
8220;DHT22;4151;51.110;7.020;2023-08-07T05:33:10;12.10;99.90
8220;DHT22;4151;51.110;7.020;2023-08-07T05:35:38;12.10;99.90
8220;DHT22;4151;51.110;7.020;2023-08-07T05:38:04;12.10;99.90
8220;DHT22;4151;51.110;7.020;2023-08-07T05:40:29;12.10;99.90
8220;DHT22;4151;51.110;7.020;2023-08-07T05:42:55;12.00;99.90
8220;DHT22;4151;51.110;7.020;2023-08-07T05:45:21;12.10;99.90
8220;DHT22;4151;51.110;7.020;2023-08-07T05:47:46;12.00;99.90
8220;DHT22;4151;51.110;7.020;2023-08-07T05:50:12;12.00;99.90
8220;DHT22;4151;51.110;7.020;2023-08-07T05:52:37;12.00;99.90
8220;DHT22;4151;51.110;7.020;2023-08-07T05:55:06;12.00;99.90
8220;DHT22;4151;51.110;7.020;2023-08-07T05:57:33;12.00;99.90
8220;DHT22;4151;51.110;7.020;2023-08-07T05:59:59;12.00;99.90
8220;DHT22;4151;51.110;7.020;2023-08-07T06:02:24;12.00;99.90
8220;DHT22;4151;51.110;7.020;2023-08-07T06:04:50;12.00;99.90
8220;DHT22;4151;51.110;7.020;2023-08-07T06:07:15;12.00;99.90
8220;DHT22;4151;51.110;7.020;2023-08-07T06:09:41;12.00;99.90
8220;DHT22;4151;51.110;7.020;2023-08-07T06:12:07;12.00;99.90
8220;DHT22;4151;51.110;7.020;2023-08-07T06:14:33;12.00;99.90
8220;DHT22;4151;51.110;7.020;2023-08-07T06:16:58;12.00;99.90
8220;DHT22;4151;51.110;7.020;2023-08-07T06:19:26;12.00;99.90
8220;DHT22;4151;51.110;7.020;2023-08-07T06:21:52;12.00;99.90
8220;DHT22;4151;51.110;7.020;2023-08-07T06:24:18;12.00;99.90
8220;DHT22;4151;51.110;7.020;2023-08-07T06:26:45;12.00;99.90
8220;DHT22;4151;51.110;7.020;2023-08-07T06:29:11;12.00;99.90
8220;DHT22;4151;51.110;7.020;2023-08-07T06:31:36;12.00;99.90
8220;DHT22;4151;51.110;7.020;2023-08-07T06:34:02;12.00;99.90
8220;DHT22;4151;51.110;7.020;2023-08-07T06:36:28;12.00;99.90
8220;DHT22;4151;51.110;7.020;2023-08-07T06:38:54;12.00;99.90
8220;DHT22;4151;51.110;7.020;2023-08-07T06:41:19;12.00;99.90
8220;DHT22;4151;51.110;7.020;2023-08-07T06:43:45;12.00;99.90
8220;DHT22;4151;51.110;7.020;2023-08-07T06:46:10;11.90;99.90
8220;DHT22;4151;51.110;7.020;2023-08-07T06:48:36;11.90;99.90
8220;DHT22;4151;51.110;7.020;2023-08-07T06:51:02;11.90;99.90
8220;DHT22;4151;51.110;7.020;2023-08-07T06:53:28;11.90;99.90
8220;DHT22;4151;51.110;7.020;2023-08-07T06:55:53;11.90;99.90
8220;DHT22;4151;51.110;7.020;2023-08-07T06:58:19;12.00;99.90
8220;DHT22;4151;51.110;7.020;2023-08-07T07:00:44;11.90;99.90
8220;DHT22;4151;51.110;7.020;2023-08-07T07:03:11;11.90;99.90
8220;DHT22;4151;51.110;7.020;2023-08-07T07:05:37;12.00;99.90
8220;DHT22;4151;51.110;7.020;2023-08-07T07:08:03;12.00;99.90
8220;DHT22;4151;51.110;7.020;2023-08-07T07:10:29;12.00;99.90
8220;DHT22;4151;51.110;7.020;2023-08-07T07:12:54;12.00;99.90
8220;DHT22;4151;51.110;7.020;2023-08-07T07:15:20;12.00;99.90
8220;DHT22;4151;51.110;7.020;2023-08-07T07:17:46;12.00;99.90
8220;DHT22;4151;51.110;7.020;2023-08-07T07:20:11;12.00;99.90
8220;DHT22;4151;51.110;7.020;2023-08-07T07:22:37;12.00;99.90
8220;DHT22;4151;51.110;7.020;2023-08-07T07:25:04;12.00;99.90
8220;DHT22;4151;51.110;7.020;2023-08-07T07:27:30;12.00;99.90
8220;DHT22;4151;51.110;7.020;2023-08-07T07:29:55;12.00;99.90
8220;DHT22;4151;51.110;7.020;2023-08-07T07:32:21;12.00;99.90
8220;DHT22;4151;51.110;7.020;2023-08-07T07:34:47;12.00;99.90
8220;DHT22;4151;51.110;7.020;2023-08-07T07:37:13;12.10;99.90
8220;DHT22;4151;51.110;7.020;2023-08-07T07:39:39;12.10;99.90
8220;DHT22;4151;51.110;7.020;2023-08-07T07:42:06;12.10;99.90
8220;DHT22;4151;51.110;7.020;2023-08-07T07:44:32;12.10;99.90
8220;DHT22;4151;51.110;7.020;2023-08-07T07:46:59;12.10;99.90
8220;DHT22;4151;51.110;7.020;2023-08-07T07:49:25;12.10;99.90
8220;DHT22;4151;51.110;7.020;2023-08-07T07:51:50;12.10;99.90
8220;DHT22;4151;51.110;7.020;2023-08-07T07:54:16;12.10;99.90
8220;DHT22;4151;51.110;7.020;2023-08-07T07:56:42;12.10;99.90
8220;DHT22;4151;51.110;7.020;2023-08-07T07:59:08;12.10;99.90
8220;DHT22;4151;51.110;7.020;2023-08-07T08:01:33;12.20;99.90
8220;DHT22;4151;51.110;7.020;2023-08-07T08:03:59;12.20;99.90
8220;DHT22;4151;51.110;7.020;2023-08-07T08:06:24;12.20;99.90
8220;DHT22;4151;51.110;7.020;2023-08-07T08:08:50;12.20;99.90
8220;DHT22;4151;51.110;7.020;2023-08-07T08:11:15;12.20;99.90
8220;DHT22;4151;51.110;7.020;2023-08-07T08:13:41;12.20;99.90
8220;DHT22;4151;51.110;7.020;2023-08-07T08:16:07;12.30;99.90
8220;DHT22;4151;51.110;7.020;2023-08-07T08:18:33;12.20;99.90
8220;DHT22;4151;51.110;7.020;2023-08-07T08:20:58;12.20;99.90
8220;DHT22;4151;51.110;7.020;2023-08-07T08:23:24;12.20;99.90
8220;DHT22;4151;51.110;7.020;2023-08-07T08:25:49;12.30;99.90
8220;DHT22;4151;51.110;7.020;2023-08-07T08:28:16;12.30;99.90
8220;DHT22;4151;51.110;7.020;2023-08-07T08:30:42;12.30;99.90
8220;DHT22;4151;51.110;7.020;2023-08-07T08:33:07;12.30;99.90
8220;DHT22;4151;51.110;7.020;2023-08-07T08:35:36;12.30;99.90
8220;DHT22;4151;51.110;7.020;2023-08-07T08:38:02;12.40;99.90
8220;DHT22;4151;51.110;7.020;2023-08-07T08:40:29;12.40;99.90
8220;DHT22;4151;51.110;7.020;2023-08-07T08:42:55;12.40;99.90
8220;DHT22;4151;51.110;7.020;2023-08-07T08:45:26;12.50;99.90
8220;DHT22;4151;51.110;7.020;2023-08-07T08:47:54;12.60;99.90
8220;DHT22;4151;51.110;7.020;2023-08-07T08:50:21;12.70;99.90
8220;DHT22;4151;51.110;7.020;2023-08-07T08:52:46;12.70;99.90
8220;DHT22;4151;51.110;7.020;2023-08-07T08:55:13;12.70;99.90
8220;DHT22;4151;51.110;7.020;2023-08-07T08:57:39;12.60;99.90
8220;DHT22;4151;51.110;7.020;2023-08-07T09:00:07;12.60;99.90
8220;DHT22;4151;51.110;7.020;2023-08-07T09:02:41;12.70;99.90
8220;DHT22;4151;51.110;7.020;2023-08-07T09:05:07;12.80;99.90
8220;DHT22;4151;51.110;7.020;2023-08-07T09:07:33;12.80;99.90
8220;DHT22;4151;51.110;7.020;2023-08-07T09:10:02;12.90;99.90
8220;DHT22;4151;51.110;7.020;2023-08-07T09:12:32;12.90;99.90
8220;DHT22;4151;51.110;7.020;2023-08-07T09:14:58;12.80;99.90
8220;DHT22;4151;51.110;7.020;2023-08-07T09:17:24;12.70;99.90
8220;DHT22;4151;51.110;7.020;2023-08-07T09:19:52;12.70;99.90
8220;DHT22;4151;51.110;7.020;2023-08-07T09:22:19;12.90;99.90
8220;DHT22;4151;51.110;7.020;2023-08-07T09:24:44;13.00;99.90
8220;DHT22;4151;51.110;7.020;2023-08-07T09:27:10;13.10;99.90
8220;DHT22;4151;51.110;7.020;2023-08-07T09:29:36;13.30;99.90
8220;DHT22;4151;51.110;7.020;2023-08-07T09:32:28;13.40;99.90
8220;DHT22;4151;51.110;7.020;2023-08-07T09:34:53;13.70;99.90
8220;DHT22;4151;51.110;7.020;2023-08-07T09:37:19;13.80;99.90
8220;DHT22;4151;51.110;7.020;2023-08-07T09:39:44;14.20;99.90
8220;DHT22;4151;51.110;7.020;2023-08-07T09:42:15;14.40;99.90
8220;DHT22;4151;51.110;7.020;2023-08-07T09:44:41;14.70;99.90
8220;DHT22;4151;51.110;7.020;2023-08-07T09:47:17;14.80;99.90
8220;DHT22;4151;51.110;7.020;2023-08-07T09:49:44;14.70;99.90
8220;DHT22;4151;51.110;7.020;2023-08-07T09:52:11;14.70;99.90
8220;DHT22;4151;51.110;7.020;2023-08-07T09:54:39;14.60;99.90
8220;DHT22;4151;51.110;7.020;2023-08-07T09:57:05;14.60;99.90
8220;DHT22;4151;51.110;7.020;2023-08-07T09:59:33;14.60;99.90
8220;DHT22;4151;51.110;7.020;2023-08-07T10:02:03;14.70;99.90
8220;DHT22;4151;51.110;7.020;2023-08-07T10:04:29;14.70;99.90
8220;DHT22;4151;51.110;7.020;2023-08-07T10:06:56;15.00;99.90
8220;DHT22;4151;51.110;7.020;2023-08-07T10:09:21;15.40;99.90
8220;DHT22;4151;51.110;7.020;2023-08-07T10:11:49;15.50;99.90
8220;DHT22;4151;51.110;7.020;2023-08-07T10:14:15;15.70;99.90
8220;DHT22;4151;51.110;7.020;2023-08-07T10:16:41;15.80;99.90
8220;DHT22;4151;51.110;7.020;2023-08-07T10:19:08;15.60;99.90
8220;DHT22;4151;51.110;7.020;2023-08-07T10:21:36;15.60;99.90
8220;DHT22;4151;51.110;7.020;2023-08-07T10:24:04;15.40;99.90
8220;DHT22;4151;51.110;7.020;2023-08-07T10:26:31;15.30;99.90
8220;DHT22;4151;51.110;7.020;2023-08-07T10:28:58;15.50;99.90
8220;DHT22;4151;51.110;7.020;2023-08-07T10:31:25;15.90;99.90
8220;DHT22;4151;51.110;7.020;2023-08-07T10:33:51;15.90;99.90
8220;DHT22;4151;51.110;7.020;2023-08-07T10:36:18;16.30;99.90
8220;DHT22;4151;51.110;7.020;2023-08-07T10:38:44;16.60;99.90
8220;DHT22;4151;51.110;7.020;2023-08-07T10:41:13;17.00;99.90
8220;DHT22;4151;51.110;7.020;2023-08-07T10:43:45;17.60;99.90
8220;DHT22;4151;51.110;7.020;2023-08-07T10:46:18;17.70;99.90
8220;DHT22;4151;51.110;7.020;2023-08-07T10:48:46;17.90;99.90
8220;DHT22;4151;51.110;7.020;2023-08-07T10:51:16;17.90;99.90
8220;DHT22;4151;51.110;7.020;2023-08-07T10:53:44;17.60;99.90
8220;DHT22;4151;51.110;7.020;2023-08-07T10:56:18;18.10;99.90
8220;DHT22;4151;51.110;7.020;2023-08-07T10:58:51;17.50;99.90
8220;DHT22;4151;51.110;7.020;2023-08-07T11:04:05;17.60;99.90
8220;DHT22;4151;51.110;7.020;2023-08-07T11:06:33;18.40;99.90
8220;DHT22;4151;51.110;7.020;2023-08-07T11:08:59;19.10;99.90
8220;DHT22;4151;51.110;7.020;2023-08-07T11:11:27;19.30;99.90
8220;DHT22;4151;51.110;7.020;2023-08-07T11:13:52;18.70;99.90
8220;DHT22;4151;51.110;7.020;2023-08-07T11:16:20;18.20;99.90
8220;DHT22;4151;51.110;7.020;2023-08-07T11:18:47;17.80;99.90
8220;DHT22;4151;51.110;7.020;2023-08-07T11:21:13;17.70;99.90
8220;DHT22;4151;51.110;7.020;2023-08-07T11:23:40;17.60;99.90
8220;DHT22;4151;51.110;7.020;2023-08-07T11:26:07;17.50;99.90
8220;DHT22;4151;51.110;7.020;2023-08-07T11:28:33;17.50;99.90
8220;DHT22;4151;51.110;7.020;2023-08-07T11:30:59;17.50;99.90
8220;DHT22;4151;51.110;7.020;2023-08-07T11:33:26;17.30;99.90
8220;DHT22;4151;51.110;7.020;2023-08-07T11:35:52;17.30;99.90
8220;DHT22;4151;51.110;7.020;2023-08-07T11:48:38;19.90;99.90
8220;DHT22;4151;51.110;7.020;2023-08-07T11:51:04;19.90;99.90
8220;DHT22;4151;51.110;7.020;2023-08-07T11:53:33;19.80;99.90
8220;DHT22;4151;51.110;7.020;2023-08-07T11:56:00;19.90;99.90
8220;DHT22;4151;51.110;7.020;2023-08-07T11:58:28;20.10;99.90
8220;DHT22;4151;51.110;7.020;2023-08-07T12:00:58;20.40;99.90
8220;DHT22;4151;51.110;7.020;2023-08-07T12:03:36;20.70;99.90
8220;DHT22;4151;51.110;7.020;2023-08-07T12:06:04;20.90;99.90
8220;DHT22;4151;51.110;7.020;2023-08-07T12:11:06;20.40;99.90
8220;DHT22;4151;51.110;7.020;2023-08-07T12:13:32;19.70;99.90
8220;DHT22;4151;51.110;7.020;2023-08-07T12:16:01;19.60;99.90
8220;DHT22;4151;51.110;7.020;2023-08-07T12:18:28;19.30;99.90
8220;DHT22;4151;51.110;7.020;2023-08-07T12:21:02;19.30;99.90
8220;DHT22;4151;51.110;7.020;2023-08-07T12:23:28;19.20;99.90
8220;DHT22;4151;51.110;7.020;2023-08-07T12:25:54;19.10;99.90
8220;DHT22;4151;51.110;7.020;2023-08-07T12:28:21;18.60;99.90
8220;DHT22;4151;51.110;7.020;2023-08-07T12:30:47;18.60;99.90
8220;DHT22;4151;51.110;7.020;2023-08-07T12:33:13;18.80;99.90
8220;DHT22;4151;51.110;7.020;2023-08-07T12:35:39;19.00;99.90
8220;DHT22;4151;51.110;7.020;2023-08-07T12:38:05;19.20;99.90
8220;DHT22;4151;51.110;7.020;2023-08-07T12:40:31;19.70;99.90
8220;DHT22;4151;51.110;7.020;2023-08-07T12:42:58;20.30;99.90
8220;DHT22;4151;51.110;7.020;2023-08-07T12:45:24;21.20;99.90
8220;DHT22;4151;51.110;7.020;2023-08-07T12:47:49;22.20;99.90
8220;DHT22;4151;51.110;7.020;2023-08-07T12:50:15;22.60;99.90
8220;DHT22;4151;51.110;7.020;2023-08-07T12:52:41;21.90;99.90
8220;DHT22;4151;51.110;7.020;2023-08-07T12:55:07;22.20;99.90
8220;DHT22;4151;51.110;7.020;2023-08-07T12:57:33;22.60;99.90
8220;DHT22;4151;51.110;7.020;2023-08-07T12:59:59;23.40;99.90
8220;DHT22;4151;51.110;7.020;2023-08-07T13:02:24;22.70;99.90
8220;DHT22;4151;51.110;7.020;2023-08-07T13:04:50;23.00;99.90
8220;DHT22;4151;51.110;7.020;2023-08-07T13:07:17;21.80;99.90
8220;DHT22;4151;51.110;7.020;2023-08-07T13:09:42;21.70;99.90
8220;DHT22;4151;51.110;7.020;2023-08-07T13:12:08;22.70;99.90
8220;DHT22;4151;51.110;7.020;2023-08-07T13:14:34;23.20;99.90
8220;DHT22;4151;51.110;7.020;2023-08-07T13:16:59;23.10;99.90
8220;DHT22;4151;51.110;7.020;2023-08-07T13:19:25;22.80;99.90
8220;DHT22;4151;51.110;7.020;2023-08-07T13:21:50;22.60;99.90
8220;DHT22;4151;51.110;7.020;2023-08-07T13:24:16;21.80;99.90
8220;DHT22;4151;51.110;7.020;2023-08-07T13:26:41;21.50;99.90
8220;DHT22;4151;51.110;7.020;2023-08-07T13:29:13;21.30;99.90
8220;DHT22;4151;51.110;7.020;2023-08-07T13:31:39;21.50;99.90
8220;DHT22;4151;51.110;7.020;2023-08-07T13:34:07;21.40;99.90
8220;DHT22;4151;51.110;7.020;2023-08-07T13:36:36;22.30;99.90
8220;DHT22;4151;51.110;7.020;2023-08-07T13:39:02;23.20;99.90
8220;DHT22;4151;51.110;7.020;2023-08-07T13:41:28;23.70;99.90
8220;DHT22;4151;51.110;7.020;2023-08-07T13:43:54;24.20;99.90
8220;DHT22;4151;51.110;7.020;2023-08-07T13:46:19;24.10;99.90
8220;DHT22;4151;51.110;7.020;2023-08-07T13:48:45;23.90;99.90
8220;DHT22;4151;51.110;7.020;2023-08-07T13:51:11;23.70;99.90
8220;DHT22;4151;51.110;7.020;2023-08-07T13:53:37;23.80;99.90
8220;DHT22;4151;51.110;7.020;2023-08-07T13:56:02;23.10;99.90
8220;DHT22;4151;51.110;7.020;2023-08-07T13:58:29;23.00;99.90
8220;DHT22;4151;51.110;7.020;2023-08-07T14:00:55;22.80;99.90
8220;DHT22;4151;51.110;7.020;2023-08-07T14:03:22;24.00;99.90
8220;DHT22;4151;51.110;7.020;2023-08-07T14:05:47;25.90;99.90
8220;DHT22;4151;51.110;7.020;2023-08-07T14:08:13;28.00;97.30
8220;DHT22;4151;51.110;7.020;2023-08-07T14:10:39;28.70;93.90
8220;DHT22;4151;51.110;7.020;2023-08-07T14:13:06;28.00;95.60
8220;DHT22;4151;51.110;7.020;2023-08-07T14:15:32;26.50;94.30
8220;DHT22;4151;51.110;7.020;2023-08-07T14:17:57;25.30;95.20
8220;DHT22;4151;51.110;7.020;2023-08-07T14:20:23;24.50;97.80
8220;DHT22;4151;51.110;7.020;2023-08-07T14:22:50;24.80;95.40
8220;DHT22;4151;51.110;7.020;2023-08-07T14:25:16;25.10;95.20
8220;DHT22;4151;51.110;7.020;2023-08-07T14:27:41;24.40;96.00
8220;DHT22;4151;51.110;7.020;2023-08-07T14:30:07;22.80;99.40
8220;DHT22;4151;51.110;7.020;2023-08-07T14:32:33;22.80;99.90
8220;DHT22;4151;51.110;7.020;2023-08-07T14:34:58;23.00;99.90
8220;DHT22;4151;51.110;7.020;2023-08-07T14:37:24;22.30;99.90
8220;DHT22;4151;51.110;7.020;2023-08-07T14:39:50;22.50;99.90
8220;DHT22;4151;51.110;7.020;2023-08-07T14:42:15;22.40;99.90
8220;DHT22;4151;51.110;7.020;2023-08-07T14:44:41;22.50;99.90
8220;DHT22;4151;51.110;7.020;2023-08-07T14:47:07;22.80;99.90
8220;DHT22;4151;51.110;7.020;2023-08-07T14:49:32;22.10;99.90
8220;DHT22;4151;51.110;7.020;2023-08-07T14:51:58;22.90;99.90
8220;DHT22;4151;51.110;7.020;2023-08-07T14:54:24;23.50;99.90
8220;DHT22;4151;51.110;7.020;2023-08-07T14:56:50;23.10;99.90
8220;DHT22;4151;51.110;7.020;2023-08-07T14:59:15;22.00;99.90
8220;DHT22;4151;51.110;7.020;2023-08-07T15:01:41;21.90;99.90
8220;DHT22;4151;51.110;7.020;2023-08-07T15:04:07;21.80;99.90
8220;DHT22;4151;51.110;7.020;2023-08-07T15:06:32;21.20;99.90
8220;DHT22;4151;51.110;7.020;2023-08-07T15:08:58;20.90;99.90
8220;DHT22;4151;51.110;7.020;2023-08-07T15:11:24;20.60;99.90
8220;DHT22;4151;51.110;7.020;2023-08-07T15:13:50;20.40;99.90
8220;DHT22;4151;51.110;7.020;2023-08-07T15:16:16;20.60;99.90
8220;DHT22;4151;51.110;7.020;2023-08-07T15:18:41;20.70;99.90
8220;DHT22;4151;51.110;7.020;2023-08-07T15:21:07;20.70;99.90
8220;DHT22;4151;51.110;7.020;2023-08-07T15:23:33;20.70;99.90
8220;DHT22;4151;51.110;7.020;2023-08-07T15:25:58;20.50;99.90
8220;DHT22;4151;51.110;7.020;2023-08-07T15:28:25;20.10;99.90
8220;DHT22;4151;51.110;7.020;2023-08-07T15:30:51;19.70;99.90
8220;DHT22;4151;51.110;7.020;2023-08-07T15:33:17;19.60;99.90
8220;DHT22;4151;51.110;7.020;2023-08-07T15:35:43;19.40;99.90
8220;DHT22;4151;51.110;7.020;2023-08-07T15:38:09;19.30;99.90
8220;DHT22;4151;51.110;7.020;2023-08-07T15:40:41;18.80;99.90
8220;DHT22;4151;51.110;7.020;2023-08-07T15:43:09;19.00;99.90
8220;DHT22;4151;51.110;7.020;2023-08-07T15:45:35;20.10;99.90
8220;DHT22;4151;51.110;7.020;2023-08-07T15:48:01;21.20;99.90
8220;DHT22;4151;51.110;7.020;2023-08-07T15:50:27;21.60;99.90
8220;DHT22;4151;51.110;7.020;2023-08-07T15:52:52;22.10;99.90
8220;DHT22;4151;51.110;7.020;2023-08-07T15:55:18;23.10;99.90
8220;DHT22;4151;51.110;7.020;2023-08-07T15:57:44;24.40;99.90
8220;DHT22;4151;51.110;7.020;2023-08-07T16:00:10;25.00;99.90
8220;DHT22;4151;51.110;7.020;2023-08-07T16:02:36;25.90;99.90
8220;DHT22;4151;51.110;7.020;2023-08-07T16:05:01;26.30;99.90
8220;DHT22;4151;51.110;7.020;2023-08-07T16:07:27;26.60;99.90
8220;DHT22;4151;51.110;7.020;2023-08-07T16:09:54;25.80;99.90
8220;DHT22;4151;51.110;7.020;2023-08-07T16:12:20;24.10;99.90
8220;DHT22;4151;51.110;7.020;2023-08-07T16:14:46;23.20;99.90
8220;DHT22;4151;51.110;7.020;2023-08-07T16:17:14;23.10;99.90
8220;DHT22;4151;51.110;7.020;2023-08-07T16:19:39;23.30;99.90